sensor_id;sensor_type;location;lat;lon;timestamp;P1;durP1;ratioP1;P2;durP2;ratioP2
13832;SDS011;6987;19.472;-99.276;2022-08-19T00:00:42;2.53;;;2.28;;
13832;SDS011;6987;19.472;-99.276;2022-08-19T00:03:11;5.85;;;2.50;;
13832;SDS011;6987;19.472;-99.276;2022-08-19T00:05:40;3.20;;;2.13;;
13832;SDS011;6987;19.472;-99.276;2022-08-19T00:08:10;3.03;;;2.47;;
13832;SDS011;6987;19.472;-99.276;2022-08-19T00:10:40;2.13;;;1.88;;
13832;SDS011;6987;19.472;-99.276;2022-08-19T00:13:08;2.45;;;2.03;;
13832;SDS011;6987;19.472;-99.276;2022-08-19T00:15:37;1.77;;;1.67;;
13832;SDS011;6987;19.472;-99.276;2022-08-19T00:18:07;2.40;;;2.10;;
13832;SDS011;6987;19.472;-99.276;2022-08-19T00:20:36;3.67;;;1.88;;
13832;SDS011;6987;19.472;-99.276;2022-08-19T00:23:06;1.95;;;1.80;;
13832;SDS011;6987;19.472;-99.276;2022-08-19T00:25:36;1.92;;;1.80;;
13832;SDS011;6987;19.472;-99.276;2022-08-19T00:28:06;4.13;;;2.03;;
13832;SDS011;6987;19.472;-99.276;2022-08-19T00:30:34;4.18;;;2.15;;
13832;SDS011;6987;19.472;-99.276;2022-08-19T00:33:03;2.22;;;2.05;;
13832;SDS011;6987;19.472;-99.276;2022-08-19T00:35:33;2.67;;;1.67;;
13832;SDS011;6987;19.472;-99.276;2022-08-19T00:38:04;1.27;;;1.25;;
13832;SDS011;6987;19.472;-99.276;2022-08-19T00:40:33;1.58;;;1.48;;
13832;SDS011;6987;19.472;-99.276;2022-08-19T00:43:09;1.75;;;1.63;;
13832;SDS011;6987;19.472;-99.276;2022-08-19T00:45:39;2.03;;;1.80;;
13832;SDS011;6987;19.472;-99.276;2022-08-19T00:48:09;1.67;;;1.40;;
13832;SDS011;6987;19.472;-99.276;2022-08-19T00:50:38;1.65;;;1.30;;
13832;SDS011;6987;19.472;-99.276;2022-08-19T00:53:09;1.30;;;1.20;;
13832;SDS011;6987;19.472;-99.276;2022-08-19T00:55:38;2.75;;;1.17;;
13832;SDS011;6987;19.472;-99.276;2022-08-19T00:58:10;1.35;;;1.25;;
13832;SDS011;6987;19.472;-99.276;2022-08-19T01:00:40;0.82;;;0.80;;
13832;SDS011;6987;19.472;-99.276;2022-08-19T01:03:11;1.00;;;1.00;;
13832;SDS011;6987;19.472;-99.276;2022-08-19T01:05:40;1.33;;;1.05;;
13832;SDS011;6987;19.472;-99.276;2022-08-19T01:08:10;8.02;;;1.10;;
13832;SDS011;6987;19.472;-99.276;2022-08-19T01:10:41;2.00;;;0.98;;
13832;SDS011;6987;19.472;-99.276;2022-08-19T01:13:14;1.35;;;0.93;;
13832;SDS011;6987;19.472;-99.276;2022-08-19T01:15:45;0.95;;;0.95;;
13832;SDS011;6987;19.472;-99.276;2022-08-19T01:18:15;1.20;;;0.98;;
13832;SDS011;6987;19.472;-99.276;2022-08-19T01:20:45;0.80;;;0.80;;
13832;SDS011;6987;19.472;-99.276;2022-08-19T01:23:16;1.15;;;0.88;;
13832;SDS011;6987;19.472;-99.276;2022-08-19T01:25:45;1.05;;;0.90;;
13832;SDS011;6987;19.472;-99.276;2022-08-19T01:28:16;1.35;;;1.25;;
13832;SDS011;6987;19.472;-99.276;2022-08-19T01:30:45;1.00;;;1.00;;
13832;SDS011;6987;19.472;-99.276;2022-08-19T01:33:15;1.38;;;1.20;;
13832;SDS011;6987;19.472;-99.276;2022-08-19T01:35:45;2.17;;;1.58;;
13832;SDS011;6987;19.472;-99.276;2022-08-19T01:38:23;1.80;;;1.70;;
13832;SDS011;6987;19.472;-99.276;2022-08-19T01:40:52;2.28;;;1.50;;
13832;SDS011;6987;19.472;-99.276;2022-08-19T01:43:21;1.50;;;1.50;;
13832;SDS011;6987;19.472;-99.276;2022-08-19T01:45:50;2.53;;;1.55;;
13832;SDS011;6987;19.472;-99.276;2022-08-19T01:48:19;1.75;;;1.65;;
13832;SDS011;6987;19.472;-99.276;2022-08-19T01:50:48;3.08;;;1.30;;
13832;SDS011;6987;19.472;-99.276;2022-08-19T01:53:17;3.08;;;1.50;;
13832;SDS011;6987;19.472;-99.276;2022-08-19T01:55:47;2.72;;;1.58;;
13832;SDS011;6987;19.472;-99.276;2022-08-19T01:58:18;2.20;;;2.00;;
13832;SDS011;6987;19.472;-99.276;2022-08-19T02:00:47;1.42;;;1.40;;
13832;SDS011;6987;19.472;-99.276;2022-08-19T02:03:16;1.92;;;1.65;;
13832;SDS011;6987;19.472;-99.276;2022-08-19T02:05:46;2.25;;;2.05;;
13832;SDS011;6987;19.472;-99.276;2022-08-19T02:08:16;1.90;;;1.80;;
13832;SDS011;6987;19.472;-99.276;2022-08-19T02:10:47;1.98;;;1.88;;
13832;SDS011;6987;19.472;-99.276;2022-08-19T02:13:17;4.25;;;2.50;;
13832;SDS011;6987;19.472;-99.276;2022-08-19T02:15:46;2.30;;;2.10;;
13832;SDS011;6987;19.472;-99.276;2022-08-19T02:18:15;2.38;;;2.20;;
13832;SDS011;6987;19.472;-99.276;2022-08-19T02:20:44;2.25;;;2.03;;
13832;SDS011;6987;19.472;-99.276;2022-08-19T02:23:14;2.58;;;2.42;;
13832;SDS011;6987;19.472;-99.276;2022-08-19T02:25:43;1.88;;;1.77;;
13832;SDS011;6987;19.472;-99.276;2022-08-19T02:28:14;3.30;;;2.88;;
13832;SDS011;6987;19.472;-99.276;2022-08-19T02:30:43;2.67;;;2.50;;
13832;SDS011;6987;19.472;-99.276;2022-08-19T02:33:12;2.75;;;2.47;;
13832;SDS011;6987;19.472;-99.276;2022-08-19T02:35:41;5.15;;;2.65;;
13832;SDS011;6987;19.472;-99.276;2022-08-19T02:38:10;3.15;;;2.92;;
13832;SDS011;6987;19.472;-99.276;2022-08-19T02:40:55;3.00;;;2.67;;
13832;SDS011;6987;19.472;-99.276;2022-08-19T02:43:26;2.33;;;2.03;;
13832;SDS011;6987;19.472;-99.276;2022-08-19T02:45:56;1.92;;;1.83;;
13832;SDS011;6987;19.472;-99.276;2022-08-19T02:48:25;2.03;;;1.83;;
13832;SDS011;6987;19.472;-99.276;2022-08-19T02:50:54;2.33;;;2.10;;
13832;SDS011;6987;19.472;-99.276;2022-08-19T02:53:24;2.60;;;2.38;;
13832;SDS011;6987;19.472;-99.276;2022-08-19T02:55:53;3.15;;;1.80;;
13832;SDS011;6987;19.472;-99.276;2022-08-19T02:58:22;3.22;;;1.85;;
13832;SDS011;6987;19.472;-99.276;2022-08-19T03:00:54;2.58;;;1.70;;
13832;SDS011;6987;19.472;-99.276;2022-08-19T03:03:23;2.17;;;1.98;;
13832;SDS011;6987;19.472;-99.276;2022-08-19T03:06:01;2.20;;;2.10;;
13832;SDS011;6987;19.472;-99.276;2022-08-19T03:08:30;2.13;;;1.92;;
13832;SDS011;6987;19.472;-99.276;2022-08-19T03:10:59;1.48;;;1.48;;
13832;SDS011;6987;19.472;-99.276;2022-08-19T03:13:28;1.90;;;1.80;;
13832;SDS011;6987;19.472;-99.276;2022-08-19T03:15:58;2.03;;;1.92;;
13832;SDS011;6987;19.472;-99.276;2022-08-19T03:18:27;2.35;;;2.10;;
13832;SDS011;6987;19.472;-99.276;2022-08-19T03:20:56;1.90;;;1.75;;
13832;SDS011;6987;19.472;-99.276;2022-08-19T03:23:25;2.22;;;2.03;;
13832;SDS011;6987;19.472;-99.276;2022-08-19T03:25:54;1.73;;;1.63;;
13832;SDS011;6987;19.472;-99.276;2022-08-19T03:28:23;2.05;;;1.85;;
13832;SDS011;6987;19.472;-99.276;2022-08-19T03:30:55;2.53;;;2.22;;
13832;SDS011;6987;19.472;-99.276;2022-08-19T03:33:26;1.85;;;1.75;;
13832;SDS011;6987;19.472;-99.276;2022-08-19T03:36:03;1.50;;;1.45;;
13832;SDS011;6987;19.472;-99.276;2022-08-19T03:38:34;1.27;;;1.27;;
13832;SDS011;6987;19.472;-99.276;2022-08-19T03:41:03;1.65;;;1.55;;
13832;SDS011;6987;19.472;-99.276;2022-08-19T03:43:33;1.83;;;1.73;;
13832;SDS011;6987;19.472;-99.276;2022-08-19T03:46:02;1.70;;;1.60;;
13832;SDS011;6987;19.472;-99.276;2022-08-19T03:48:34;2.08;;;1.80;;
13832;SDS011;6987;19.472;-99.276;2022-08-19T03:51:06;1.65;;;1.58;;
13832;SDS011;6987;19.472;-99.276;2022-08-19T03:53:35;2.72;;;2.03;;
13832;SDS011;6987;19.472;-99.276;2022-08-19T03:56:04;1.45;;;1.45;;
13832;SDS011;6987;19.472;-99.276;2022-08-19T03:58:36;1.88;;;1.77;;
13832;SDS011;6987;19.472;-99.276;2022-08-19T04:01:07;1.95;;;1.60;;
13832;SDS011;6987;19.472;-99.276;2022-08-19T04:03:38;2.75;;;1.45;;
13832;SDS011;6987;19.472;-99.276;2022-08-19T04:06:11;2.05;;;1.73;;
13832;SDS011;6987;19.472;-99.276;2022-08-19T04:08:40;4.68;;;1.85;;
13832;SDS011;6987;19.472;-99.276;2022-08-19T04:11:09;2.65;;;2.22;;
13832;SDS011;6987;19.472;-99.276;2022-08-19T04:13:38;2.10;;;1.90;;
13832;SDS011;6987;19.472;-99.276;2022-08-19T04:16:07;2.60;;;2.22;;
13832;SDS011;6987;19.472;-99.276;2022-08-19T04:18:39;2.03;;;1.92;;
13832;SDS011;6987;19.472;-99.276;2022-08-19T04:21:14;1.92;;;1.83;;
13832;SDS011;6987;19.472;-99.276;2022-08-19T04:23:43;2.45;;;2.03;;
13832;SDS011;6987;19.472;-99.276;2022-08-19T04:26:12;2.75;;;1.40;;
13832;SDS011;6987;19.472;-99.276;2022-08-19T04:28:42;2.50;;;2.08;;
13832;SDS011;6987;19.472;-99.276;2022-08-19T04:31:13;1.73;;;1.65;;
13832;SDS011;6987;19.472;-99.276;2022-08-19T04:33:44;2.53;;;2.10;;
13832;SDS011;6987;19.472;-99.276;2022-08-19T04:36:15;4.82;;;2.20;;
13832;SDS011;6987;19.472;-99.276;2022-08-19T04:38:46;2.08;;;1.98;;
13832;SDS011;6987;19.472;-99.276;2022-08-19T04:41:15;3.05;;;2.25;;
13832;SDS011;6987;19.472;-99.276;2022-08-19T04:44:00;2.50;;;2.28;;
13832;SDS011;6987;19.472;-99.276;2022-08-19T04:46:29;2.85;;;2.22;;
13832;SDS011;6987;19.472;-99.276;2022-08-19T04:49:01;2.63;;;2.42;;
13832;SDS011;6987;19.472;-99.276;2022-08-19T04:51:31;2.83;;;2.42;;
13832;SDS011;6987;19.472;-99.276;2022-08-19T04:54:01;2.60;;;2.40;;
13832;SDS011;6987;19.472;-99.276;2022-08-19T04:56:30;2.67;;;2.30;;
13832;SDS011;6987;19.472;-99.276;2022-08-19T04:58:59;2.90;;;2.17;;
13832;SDS011;6987;19.472;-99.276;2022-08-19T05:01:31;4.18;;;2.33;;
13832;SDS011;6987;19.472;-99.276;2022-08-19T05:04:03;3.28;;;2.03;;
13832;SDS011;6987;19.472;-99.276;2022-08-19T05:06:34;7.18;;;2.42;;
13832;SDS011;6987;19.472;-99.276;2022-08-19T05:09:03;2.25;;;2.15;;
13832;SDS011;6987;19.472;-99.276;2022-08-19T05:11:33;2.70;;;2.50;;
13832;SDS011;6987;19.472;-99.276;2022-08-19T05:14:04;2.38;;;2.20;;
13832;SDS011;6987;19.472;-99.276;2022-08-19T05:16:33;5.78;;;2.40;;
13832;SDS011;6987;19.472;-99.276;2022-08-19T05:19:04;2.65;;;2.45;;
13832;SDS011;6987;19.472;-99.276;2022-08-19T05:21:49;2.20;;;2.00;;
13832;SDS011;6987;19.472;-99.276;2022-08-19T05:24:35;2.60;;;2.50;;
13832;SDS011;6987;19.472;-99.276;2022-08-19T05:27:04;7.82;;;3.05;;
13832;SDS011;6987;19.472;-99.276;2022-08-19T05:29:33;2.58;;;2.47;;
13832;SDS011;6987;19.472;-99.276;2022-08-19T05:32:03;6.18;;;2.75;;
13832;SDS011;6987;19.472;-99.276;2022-08-19T05:34:35;3.20;;;2.90;;
13832;SDS011;6987;19.472;-99.276;2022-08-19T05:37:06;3.58;;;3.25;;
13832;SDS011;6987;19.472;-99.276;2022-08-19T05:39:35;4.10;;;2.83;;
13832;SDS011;6987;19.472;-99.276;2022-08-19T05:42:06;3.08;;;2.88;;
13832;SDS011;6987;19.472;-99.276;2022-08-19T05:44:36;3.60;;;3.40;;
13832;SDS011;6987;19.472;-99.276;2022-08-19T05:47:10;3.08;;;2.67;;
13832;SDS011;6987;19.472;-99.276;2022-08-19T05:49:43;3.25;;;2.92;;
13832;SDS011;6987;19.472;-99.276;2022-08-19T05:52:12;3.65;;;3.35;;
13832;SDS011;6987;19.472;-99.276;2022-08-19T05:54:42;3.63;;;3.42;;
13832;SDS011;6987;19.472;-99.276;2022-08-19T05:57:13;3.58;;;3.33;;
13832;SDS011;6987;19.472;-99.276;2022-08-19T05:59:43;3.53;;;3.33;;
13832;SDS011;6987;19.472;-99.276;2022-08-19T06:02:11;3.65;;;3.38;;
13832;SDS011;6987;19.472;-99.276;2022-08-19T06:04:42;3.55;;;3.35;;
13832;SDS011;6987;19.472;-99.276;2022-08-19T06:07:11;4.93;;;3.50;;
13832;SDS011;6987;19.472;-99.276;2022-08-19T06:09:40;4.75;;;3.40;;
13832;SDS011;6987;19.472;-99.276;2022-08-19T06:12:09;4.40;;;3.47;;
13832;SDS011;6987;19.472;-99.276;2022-08-19T06:14:39;3.47;;;3.20;;
13832;SDS011;6987;19.472;-99.276;2022-08-19T06:17:08;3.33;;;3.13;;
13832;SDS011;6987;19.472;-99.276;2022-08-19T06:19:38;3.50;;;3.30;;
13832;SDS011;6987;19.472;-99.276;2022-08-19T06:22:11;3.47;;;3.28;;
13832;SDS011;6987;19.472;-99.276;2022-08-19T06:24:40;3.72;;;3.42;;
13832;SDS011;6987;19.472;-99.276;2022-08-19T06:27:09;4.55;;;3.58;;
13832;SDS011;6987;19.472;-99.276;2022-08-19T06:29:39;3.25;;;3.05;;
13832;SDS011;6987;19.472;-99.276;2022-08-19T06:32:08;3.30;;;3.10;;
13832;SDS011;6987;19.472;-99.276;2022-08-19T06:34:36;2.92;;;2.83;;
13832;SDS011;6987;19.472;-99.276;2022-08-19T06:37:06;3.38;;;3.17;;
13832;SDS011;6987;19.472;-99.276;2022-08-19T06:39:38;3.42;;;3.10;;
13832;SDS011;6987;19.472;-99.276;2022-08-19T06:42:07;3.50;;;3.22;;
13832;SDS011;6987;19.472;-99.276;2022-08-19T06:44:37;3.50;;;3.20;;
13832;SDS011;6987;19.472;-99.276;2022-08-19T06:47:07;3.05;;;2.85;;
13832;SDS011;6987;19.472;-99.276;2022-08-19T06:49:36;3.15;;;2.85;;
13832;SDS011;6987;19.472;-99.276;2022-08-19T06:52:05;3.13;;;2.90;;
13832;SDS011;6987;19.472;-99.276;2022-08-19T06:54:34;3.30;;;3.10;;
13832;SDS011;6987;19.472;-99.276;2022-08-19T06:57:05;3.30;;;3.10;;
13832;SDS011;6987;19.472;-99.276;2022-08-19T06:59:34;3.15;;;2.95;;
13832;SDS011;6987;19.472;-99.276;2022-08-19T07:02:04;3.13;;;2.92;;
13832;SDS011;6987;19.472;-99.276;2022-08-19T07:04:33;3.30;;;2.75;;
13832;SDS011;6987;19.472;-99.276;2022-08-19T07:07:04;3.00;;;2.80;;
13832;SDS011;6987;19.472;-99.276;2022-08-19T07:09:34;3.13;;;2.92;;
13832;SDS011;6987;19.472;-99.276;2022-08-19T07:12:06;3.20;;;3.00;;
13832;SDS011;6987;19.472;-99.276;2022-08-19T07:14:36;2.75;;;2.53;;
13832;SDS011;6987;19.472;-99.276;2022-08-19T07:17:05;3.22;;;2.58;;
13832;SDS011;6987;19.472;-99.276;2022-08-19T07:19:34;2.90;;;2.70;;
13832;SDS011;6987;19.472;-99.276;2022-08-19T07:22:04;2.65;;;2.45;;
13832;SDS011;6987;19.472;-99.276;2022-08-19T07:24:34;4.43;;;2.58;;
13832;SDS011;6987;19.472;-99.276;2022-08-19T07:27:03;3.42;;;2.38;;
13832;SDS011;6987;19.472;-99.276;2022-08-19T07:29:34;3.15;;;2.95;;
13832;SDS011;6987;19.472;-99.276;2022-08-19T07:32:04;3.03;;;2.70;;
13832;SDS011;6987;19.472;-99.276;2022-08-19T07:34:34;2.80;;;2.70;;
13832;SDS011;6987;19.472;-99.276;2022-08-19T07:37:04;2.10;;;2.00;;
13832;SDS011;6987;19.472;-99.276;2022-08-19T07:39:33;2.75;;;2.55;;
13832;SDS011;6987;19.472;-99.276;2022-08-19T07:42:05;3.83;;;2.35;;
13832;SDS011;6987;19.472;-99.276;2022-08-19T07:44:36;2.78;;;2.30;;
13832;SDS011;6987;19.472;-99.276;2022-08-19T07:47:06;2.60;;;2.45;;
13832;SDS011;6987;19.472;-99.276;2022-08-19T07:49:35;2.60;;;2.40;;
13832;SDS011;6987;19.472;-99.276;2022-08-19T07:52:05;2.53;;;2.30;;
13832;SDS011;6987;19.472;-99.276;2022-08-19T07:54:35;2.50;;;2.30;;
13832;SDS011;6987;19.472;-99.276;2022-08-19T07:57:05;2.45;;;2.35;;
13832;SDS011;6987;19.472;-99.276;2022-08-19T07:59:34;2.33;;;2.22;;
13832;SDS011;6987;19.472;-99.276;2022-08-19T08:02:05;4.90;;;3.10;;
13832;SDS011;6987;19.472;-99.276;2022-08-19T08:04:34;2.47;;;2.35;;
13832;SDS011;6987;19.472;-99.276;2022-08-19T08:07:20;2.83;;;2.63;;
13832;SDS011;6987;19.472;-99.276;2022-08-19T08:10:05;3.17;;;2.92;;
13832;SDS011;6987;19.472;-99.276;2022-08-19T08:12:35;2.63;;;2.42;;
13832;SDS011;6987;19.472;-99.276;2022-08-19T08:15:08;2.63;;;2.53;;
13832;SDS011;6987;19.472;-99.276;2022-08-19T08:17:39;2.53;;;2.35;;
13832;SDS011;6987;19.472;-99.276;2022-08-19T08:20:08;3.45;;;3.10;;
13832;SDS011;6987;19.472;-99.276;2022-08-19T08:22:41;4.97;;;3.00;;
13832;SDS011;6987;19.472;-99.276;2022-08-19T08:25:27;3.70;;;2.58;;
13832;SDS011;6987;19.472;-99.276;2022-08-19T08:27:56;2.85;;;2.65;;
13832;SDS011;6987;19.472;-99.276;2022-08-19T08:30:27;2.67;;;2.47;;
13832;SDS011;6987;19.472;-99.276;2022-08-19T08:32:58;2.35;;;2.25;;
13832;SDS011;6987;19.472;-99.276;2022-08-19T08:35:27;2.47;;;2.38;;
13832;SDS011;6987;19.472;-99.276;2022-08-19T08:37:56;2.75;;;2.55;;
13832;SDS011;6987;19.472;-99.276;2022-08-19T08:40:27;3.47;;;3.17;;
13832;SDS011;6987;19.472;-99.276;2022-08-19T08:42:58;2.97;;;2.78;;
13832;SDS011;6987;19.472;-99.276;2022-08-19T08:45:28;3.17;;;2.97;;
13832;SDS011;6987;19.472;-99.276;2022-08-19T08:48:00;2.50;;;2.30;;
13832;SDS011;6987;19.472;-99.276;2022-08-19T08:50:32;5.45;;;3.20;;
13832;SDS011;6987;19.472;-99.276;2022-08-19T08:53:03;3.30;;;3.10;;
13832;SDS011;6987;19.472;-99.276;2022-08-19T08:55:34;3.53;;;3.20;;
13832;SDS011;6987;19.472;-99.276;2022-08-19T08:58:03;3.42;;;3.22;;
13832;SDS011;6987;19.472;-99.276;2022-08-19T09:00:33;3.50;;;3.20;;
13832;SDS011;6987;19.472;-99.276;2022-08-19T09:03:05;3.17;;;2.95;;
13832;SDS011;6987;19.472;-99.276;2022-08-19T09:05:39;3.17;;;2.95;;
13832;SDS011;6987;19.472;-99.276;2022-08-19T09:08:16;3.38;;;2.90;;
13832;SDS011;6987;19.472;-99.276;2022-08-19T09:10:49;5.85;;;3.15;;
13832;SDS011;6987;19.472;-99.276;2022-08-19T09:13:20;6.25;;;3.30;;
13832;SDS011;6987;19.472;-99.276;2022-08-19T09:15:52;4.80;;;3.20;;
13832;SDS011;6987;19.472;-99.276;2022-08-19T09:18:26;2.85;;;2.65;;
13832;SDS011;6987;19.472;-99.276;2022-08-19T09:20:55;4.93;;;3.60;;
13832;SDS011;6987;19.472;-99.276;2022-08-19T09:23:24;3.80;;;3.33;;
13832;SDS011;6987;19.472;-99.276;2022-08-19T09:25:53;3.60;;;3.08;;
13832;SDS011;6987;19.472;-99.276;2022-08-19T09:28:22;3.33;;;3.13;;
13832;SDS011;6987;19.472;-99.276;2022-08-19T09:30:51;4.15;;;2.88;;
13832;SDS011;6987;19.472;-99.276;2022-08-19T09:33:20;3.78;;;3.47;;
13832;SDS011;6987;19.472;-99.276;2022-08-19T09:36:00;3.40;;;3.10;;
13832;SDS011;6987;19.472;-99.276;2022-08-19T09:38:30;3.13;;;2.92;;
13832;SDS011;6987;19.472;-99.276;2022-08-19T09:41:02;3.22;;;2.83;;
13832;SDS011;6987;19.472;-99.276;2022-08-19T09:43:32;6.55;;;3.10;;
13832;SDS011;6987;19.472;-99.276;2022-08-19T09:46:02;3.33;;;2.92;;
13832;SDS011;6987;19.472;-99.276;2022-08-19T09:48:31;8.38;;;3.38;;
13832;SDS011;6987;19.472;-99.276;2022-08-19T09:51:06;3.17;;;2.88;;
13832;SDS011;6987;19.472;-99.276;2022-08-19T09:53:35;3.72;;;3.33;;
13832;SDS011;6987;19.472;-99.276;2022-08-19T09:56:05;3.35;;;3.13;;
13832;SDS011;6987;19.472;-99.276;2022-08-19T09:58:34;3.42;;;3.10;;
13832;SDS011;6987;19.472;-99.276;2022-08-19T10:01:04;4.05;;;2.95;;
13832;SDS011;6987;19.472;-99.276;2022-08-19T10:03:34;3.83;;;3.53;;
13832;SDS011;6987;19.472;-99.276;2022-08-19T10:06:05;3.10;;;2.90;;
13832;SDS011;6987;19.472;-99.276;2022-08-19T10:08:36;7.70;;;3.15;;
13832;SDS011;6987;19.472;-99.276;2022-08-19T10:11:05;3.45;;;3.03;;
13832;SDS011;6987;19.472;-99.276;2022-08-19T10:13:34;3.78;;;3.20;;
13832;SDS011;6987;19.472;-99.276;2022-08-19T10:16:04;2.67;;;2.47;;
13832;SDS011;6987;19.472;-99.276;2022-08-19T10:18:33;3.50;;;3.20;;
13832;SDS011;6987;19.472;-99.276;2022-08-19T10:21:03;4.93;;;2.75;;
13832;SDS011;6987;19.472;-99.276;2022-08-19T10:23:37;4.03;;;2.97;;
13832;SDS011;6987;19.472;-99.276;2022-08-19T10:26:06;3.72;;;2.90;;
13832;SDS011;6987;19.472;-99.276;2022-08-19T10:28:36;3.33;;;3.03;;
13832;SDS011;6987;19.472;-99.276;2022-08-19T10:31:05;3.10;;;2.90;;
13832;SDS011;6987;19.472;-99.276;2022-08-19T10:33:35;4.13;;;3.03;;
13832;SDS011;6987;19.472;-99.276;2022-08-19T10:36:05;3.25;;;2.92;;
13832;SDS011;6987;19.472;-99.276;2022-08-19T10:38:34;3.28;;;3.00;;
13832;SDS011;6987;19.472;-99.276;2022-08-19T10:41:08;3.90;;;3.25;;
13832;SDS011;6987;19.472;-99.276;2022-08-19T10:43:37;4.00;;;3.28;;
13832;SDS011;6987;19.472;-99.276;2022-08-19T10:46:07;3.67;;;3.33;;
13832;SDS011;6987;19.472;-99.276;2022-08-19T10:48:36;4.20;;;3.33;;
13832;SDS011;6987;19.472;-99.276;2022-08-19T10:51:05;3.55;;;3.35;;
13832;SDS011;6987;19.472;-99.276;2022-08-19T10:53:51;3.33;;;3.13;;
13832;SDS011;6987;19.472;-99.276;2022-08-19T10:56:22;3.70;;;3.40;;
13832;SDS011;6987;19.472;-99.276;2022-08-19T10:59:07;4.90;;;3.35;;
13832;SDS011;6987;19.472;-99.276;2022-08-19T11:01:39;4.57;;;3.22;;
13832;SDS011;6987;19.472;-99.276;2022-08-19T11:04:09;3.47;;;3.17;;
13832;SDS011;6987;19.472;-99.276;2022-08-19T11:06:39;4.35;;;3.53;;
13832;SDS011;6987;19.472;-99.276;2022-08-19T11:09:09;3.67;;;3.38;;
13832;SDS011;6987;19.472;-99.276;2022-08-19T11:11:40;3.58;;;3.28;;
13832;SDS011;6987;19.472;-99.276;2022-08-19T11:14:10;6.20;;;3.10;;
13832;SDS011;6987;19.472;-99.276;2022-08-19T11:16:39;3.53;;;3.22;;
13832;SDS011;6987;19.472;-99.276;2022-08-19T11:19:09;3.72;;;3.40;;
13832;SDS011;6987;19.472;-99.276;2022-08-19T11:21:40;3.47;;;2.90;;
13832;SDS011;6987;19.472;-99.276;2022-08-19T11:24:10;3.45;;;3.15;;
13832;SDS011;6987;19.472;-99.276;2022-08-19T11:26:42;2.90;;;2.70;;
13832;SDS011;6987;19.472;-99.276;2022-08-19T11:29:12;3.40;;;3.15;;
13832;SDS011;6987;19.472;-99.276;2022-08-19T11:31:41;6.65;;;3.30;;
13832;SDS011;6987;19.472;-99.276;2022-08-19T11:34:12;4.43;;;3.30;;
13832;SDS011;6987;19.472;-99.276;2022-08-19T11:36:42;4.13;;;3.17;;
13832;SDS011;6987;19.472;-99.276;2022-08-19T11:39:14;5.10;;;2.90;;
13832;SDS011;6987;19.472;-99.276;2022-08-19T11:41:45;4.57;;;3.20;;
13832;SDS011;6987;19.472;-99.276;2022-08-19T11:44:14;3.42;;;3.05;;
13832;SDS011;6987;19.472;-99.276;2022-08-19T11:46:43;3.58;;;3.28;;
13832;SDS011;6987;19.472;-99.276;2022-08-19T11:49:13;3.58;;;3.28;;
13832;SDS011;6987;19.472;-99.276;2022-08-19T11:51:42;3.28;;;2.67;;
13832;SDS011;6987;19.472;-99.276;2022-08-19T11:54:11;3.20;;;3.00;;
13832;SDS011;6987;19.472;-99.276;2022-08-19T11:56:41;3.75;;;3.10;;
13832;SDS011;6987;19.472;-99.276;2022-08-19T11:59:12;3.40;;;2.80;;
13832;SDS011;6987;19.472;-99.276;2022-08-19T12:01:42;4.60;;;2.72;;
13832;SDS011;6987;19.472;-99.276;2022-08-19T12:04:10;3.10;;;2.90;;
13832;SDS011;6987;19.472;-99.276;2022-08-19T12:06:40;4.00;;;2.80;;
13832;SDS011;6987;19.472;-99.276;2022-08-19T12:09:10;3.40;;;2.60;;
13832;SDS011;6987;19.472;-99.276;2022-08-19T12:11:40;5.40;;;2.97;;
13832;SDS011;6987;19.472;-99.276;2022-08-19T12:14:09;3.40;;;2.63;;
13832;SDS011;6987;19.472;-99.276;2022-08-19T12:16:43;2.83;;;2.63;;
13832;SDS011;6987;19.472;-99.276;2022-08-19T12:19:12;2.63;;;2.42;;
13832;SDS011;6987;19.472;-99.276;2022-08-19T12:21:41;2.80;;;2.60;;
13832;SDS011;6987;19.472;-99.276;2022-08-19T12:24:10;2.72;;;2.53;;
13832;SDS011;6987;19.472;-99.276;2022-08-19T12:26:39;3.05;;;2.83;;
13832;SDS011;6987;19.472;-99.276;2022-08-19T12:29:08;3.05;;;2.85;;
13832;SDS011;6987;19.472;-99.276;2022-08-19T12:31:37;2.45;;;2.33;;
13832;SDS011;6987;19.472;-99.276;2022-08-19T12:34:08;2.80;;;2.60;;
13832;SDS011;6987;19.472;-99.276;2022-08-19T12:36:37;4.97;;;3.15;;
13832;SDS011;6987;19.472;-99.276;2022-08-19T12:39:06;3.65;;;2.95;;
13832;SDS011;6987;19.472;-99.276;2022-08-19T12:41:35;4.25;;;3.33;;
13832;SDS011;6987;19.472;-99.276;2022-08-19T12:44:04;4.85;;;3.20;;
13832;SDS011;6987;19.472;-99.276;2022-08-19T12:46:33;2.90;;;2.67;;
13832;SDS011;6987;19.472;-99.276;2022-08-19T12:49:02;3.08;;;2.83;;
13832;SDS011;6987;19.472;-99.276;2022-08-19T12:51:33;3.20;;;2.83;;
13832;SDS011;6987;19.472;-99.276;2022-08-19T12:54:02;3.33;;;3.03;;
13832;SDS011;6987;19.472;-99.276;2022-08-19T12:56:32;4.45;;;2.72;;
13832;SDS011;6987;19.472;-99.276;2022-08-19T12:59:01;3.35;;;2.92;;
13832;SDS011;6987;19.472;-99.276;2022-08-19T13:01:30;3.55;;;2.80;;
13832;SDS011;6987;19.472;-99.276;2022-08-19T13:03:59;3.63;;;2.63;;
13832;SDS011;6987;19.472;-99.276;2022-08-19T13:06:28;6.43;;;3.03;;
13832;SDS011;6987;19.472;-99.276;2022-08-19T13:08:58;4.68;;;3.15;;
13832;SDS011;6987;19.472;-99.276;2022-08-19T13:11:27;3.25;;;3.05;;
13832;SDS011;6987;19.472;-99.276;2022-08-19T13:13:58;2.88;;;2.58;;
13832;SDS011;6987;19.472;-99.276;2022-08-19T13:16:27;3.13;;;2.85;;
13832;SDS011;6987;19.472;-99.276;2022-08-19T13:18:56;5.88;;;2.95;;
13832;SDS011;6987;19.472;-99.276;2022-08-19T13:21:28;2.83;;;2.67;;
13832;SDS011;6987;19.472;-99.276;2022-08-19T13:23:59;4.13;;;3.45;;
13832;SDS011;6987;19.472;-99.276;2022-08-19T13:26:27;2.88;;;2.67;;
13832;SDS011;6987;19.472;-99.276;2022-08-19T13:28:56;3.30;;;3.05;;
13832;SDS011;6987;19.472;-99.276;2022-08-19T13:31:42;3.50;;;3.15;;
13832;SDS011;6987;19.472;-99.276;2022-08-19T13:34:29;3.40;;;3.20;;
13832;SDS011;6987;19.472;-99.276;2022-08-19T13:36:59;3.63;;;3.33;;
13832;SDS011;6987;19.472;-99.276;2022-08-19T13:39:32;4.40;;;4.00;;
13832;SDS011;6987;19.472;-99.276;2022-08-19T13:42:01;5.68;;;4.90;;
13832;SDS011;6987;19.472;-99.276;2022-08-19T13:44:31;9.50;;;5.50;;
13832;SDS011;6987;19.472;-99.276;2022-08-19T13:47:00;7.10;;;6.32;;
13832;SDS011;6987;19.472;-99.276;2022-08-19T13:49:32;7.93;;;6.70;;
13832;SDS011;6987;19.472;-99.276;2022-08-19T13:52:02;11.30;;;6.93;;
13832;SDS011;6987;19.472;-99.276;2022-08-19T13:54:33;8.85;;;7.03;;
13832;SDS011;6987;19.472;-99.276;2022-08-19T13:57:02;7.45;;;6.75;;
13832;SDS011;6987;19.472;-99.276;2022-08-19T13:59:31;8.70;;;7.32;;
13832;SDS011;6987;19.472;-99.276;2022-08-19T14:02:00;7.65;;;6.95;;
13832;SDS011;6987;19.472;-99.276;2022-08-19T14:04:31;7.18;;;5.78;;
13832;SDS011;6987;19.472;-99.276;2022-08-19T14:06:59;7.30;;;6.60;;
13832;SDS011;6987;19.472;-99.276;2022-08-19T14:09:29;10.52;;;7.40;;
13832;SDS011;6987;19.472;-99.276;2022-08-19T14:11:59;13.55;;;7.45;;
13832;SDS011;6987;19.472;-99.276;2022-08-19T14:14:29;10.40;;;8.13;;
13832;SDS011;6987;19.472;-99.276;2022-08-19T14:16:58;8.85;;;7.75;;
13832;SDS011;6987;19.472;-99.276;2022-08-19T14:19:27;8.82;;;7.47;;
13832;SDS011;6987;19.472;-99.276;2022-08-19T14:21:55;10.20;;;8.18;;
13832;SDS011;6987;19.472;-99.276;2022-08-19T14:24:24;9.25;;;7.80;;
13832;SDS011;6987;19.472;-99.276;2022-08-19T14:26:54;10.93;;;9.00;;
13832;SDS011;6987;19.472;-99.276;2022-08-19T14:29:24;10.70;;;8.90;;
13832;SDS011;6987;19.472;-99.276;2022-08-19T14:31:54;12.57;;;9.15;;
13832;SDS011;6987;19.472;-99.276;2022-08-19T14:34:24;9.90;;;8.88;;
13832;SDS011;6987;19.472;-99.276;2022-08-19T14:36:53;11.85;;;8.93;;
13832;SDS011;6987;19.472;-99.276;2022-08-19T14:39:22;11.68;;;9.02;;
13832;SDS011;6987;19.472;-99.276;2022-08-19T14:41:51;12.02;;;9.05;;
13832;SDS011;6987;19.472;-99.276;2022-08-19T14:44:20;11.93;;;9.82;;
13832;SDS011;6987;19.472;-99.276;2022-08-19T14:46:50;12.52;;;9.93;;
13832;SDS011;6987;19.472;-99.276;2022-08-19T14:49:20;10.05;;;9.00;;
13832;SDS011;6987;19.472;-99.276;2022-08-19T14:51:48;9.30;;;8.30;;